sensor_id;sensor_type;location;lat;lon;timestamp;P1;durP1;ratioP1;P2;durP2;ratioP2
3217;SDS011;1621;49.702;8.618;2024-03-08T00:02:09;21.67;;;16.73;;
3217;SDS011;1621;49.702;8.618;2024-03-08T00:04:36;23.37;;;17.47;;
3217;SDS011;1621;49.702;8.618;2024-03-08T00:07:02;20.70;;;16.10;;
3217;SDS011;1621;49.702;8.618;2024-03-08T00:09:28;22.67;;;15.63;;
3217;SDS011;1621;49.702;8.618;2024-03-08T00:11:55;29.23;;;18.50;;
3217;SDS011;1621;49.702;8.618;2024-03-08T00:14:22;22.53;;;17.20;;
3217;SDS011;1621;49.702;8.618;2024-03-08T00:16:48;23.13;;;17.70;;
3217;SDS011;1621;49.702;8.618;2024-03-08T00:19:15;21.47;;;16.50;;
3217;SDS011;1621;49.702;8.618;2024-03-08T00:21:42;20.83;;;15.93;;
3217;SDS011;1621;49.702;8.618;2024-03-08T00:24:08;20.50;;;16.50;;
3217;SDS011;1621;49.702;8.618;2024-03-08T00:26:35;28.30;;;18.43;;
3217;SDS011;1621;49.702;8.618;2024-03-08T00:29:01;22.07;;;17.17;;
3217;SDS011;1621;49.702;8.618;2024-03-08T00:31:28;21.90;;;16.07;;
3217;SDS011;1621;49.702;8.618;2024-03-08T00:33:55;22.47;;;16.70;;
3217;SDS011;1621;49.702;8.618;2024-03-08T00:36:23;23.80;;;17.83;;
3217;SDS011;1621;49.702;8.618;2024-03-08T00:38:50;22.43;;;15.80;;
3217;SDS011;1621;49.702;8.618;2024-03-08T00:41:16;21.37;;;17.07;;
3217;SDS011;1621;49.702;8.618;2024-03-08T00:43:42;22.47;;;17.17;;
3217;SDS011;1621;49.702;8.618;2024-03-08T00:46:08;21.00;;;17.13;;
3217;SDS011;1621;49.702;8.618;2024-03-08T00:48:35;24.20;;;17.47;;
3217;SDS011;1621;49.702;8.618;2024-03-08T00:51:01;22.87;;;17.63;;
3217;SDS011;1621;49.702;8.618;2024-03-08T00:53:29;20.97;;;17.30;;
3217;SDS011;1621;49.702;8.618;2024-03-08T00:55:55;22.63;;;18.40;;
3217;SDS011;1621;49.702;8.618;2024-03-08T00:58:22;25.53;;;18.40;;
3217;SDS011;1621;49.702;8.618;2024-03-08T01:00:48;22.10;;;17.40;;
3217;SDS011;1621;49.702;8.618;2024-03-08T01:03:15;21.80;;;16.97;;
3217;SDS011;1621;49.702;8.618;2024-03-08T01:05:42;21.40;;;17.23;;
3217;SDS011;1621;49.702;8.618;2024-03-08T01:08:08;21.50;;;17.70;;
3217;SDS011;1621;49.702;8.618;2024-03-08T01:10:38;24.63;;;16.90;;
3217;SDS011;1621;49.702;8.618;2024-03-08T01:13:04;25.47;;;16.70;;
3217;SDS011;1621;49.702;8.618;2024-03-08T01:15:30;23.03;;;17.23;;
3217;SDS011;1621;49.702;8.618;2024-03-08T01:17:57;24.63;;;16.60;;
3217;SDS011;1621;49.702;8.618;2024-03-08T01:20:23;22.63;;;18.03;;
3217;SDS011;1621;49.702;8.618;2024-03-08T01:22:50;23.50;;;18.07;;
3217;SDS011;1621;49.702;8.618;2024-03-08T01:25:17;22.90;;;17.70;;
3217;SDS011;1621;49.702;8.618;2024-03-08T01:27:44;21.27;;;16.63;;
3217;SDS011;1621;49.702;8.618;2024-03-08T01:30:10;24.20;;;18.27;;
3217;SDS011;1621;49.702;8.618;2024-03-08T01:32:37;20.97;;;16.03;;
3217;SDS011;1621;49.702;8.618;2024-03-08T01:35:04;22.13;;;17.60;;
3217;SDS011;1621;49.702;8.618;2024-03-08T01:37:31;23.40;;;16.90;;
3217;SDS011;1621;49.702;8.618;2024-03-08T01:39:57;21.43;;;16.97;;
3217;SDS011;1621;49.702;8.618;2024-03-08T01:42:24;23.90;;;18.20;;
3217;SDS011;1621;49.702;8.618;2024-03-08T01:44:51;22.80;;;17.70;;
3217;SDS011;1621;49.702;8.618;2024-03-08T01:47:17;23.17;;;17.63;;
3217;SDS011;1621;49.702;8.618;2024-03-08T01:49:45;19.70;;;16.80;;
3217;SDS011;1621;49.702;8.618;2024-03-08T01:52:11;24.50;;;18.03;;
3217;SDS011;1621;49.702;8.618;2024-03-08T01:54:38;21.77;;;17.13;;
3217;SDS011;1621;49.702;8.618;2024-03-08T01:57:06;22.70;;;16.93;;
3217;SDS011;1621;49.702;8.618;2024-03-08T01:59:32;17.13;;;15.20;;
3217;SDS011;1621;49.702;8.618;2024-03-08T02:02:00;22.57;;;18.17;;
3217;SDS011;1621;49.702;8.618;2024-03-08T02:04:27;21.70;;;17.20;;
3217;SDS011;1621;49.702;8.618;2024-03-08T02:06:53;20.97;;;16.63;;
3217;SDS011;1621;49.702;8.618;2024-03-08T02:09:19;21.53;;;17.27;;
3217;SDS011;1621;49.702;8.618;2024-03-08T02:11:46;22.73;;;16.63;;
3217;SDS011;1621;49.702;8.618;2024-03-08T02:14:12;21.33;;;17.13;;
3217;SDS011;1621;49.702;8.618;2024-03-08T02:16:39;23.20;;;16.20;;
3217;SDS011;1621;49.702;8.618;2024-03-08T02:19:06;22.80;;;16.37;;
3217;SDS011;1621;49.702;8.618;2024-03-08T02:21:36;22.00;;;15.73;;
3217;SDS011;1621;49.702;8.618;2024-03-08T02:24:03;23.77;;;17.13;;
3217;SDS011;1621;49.702;8.618;2024-03-08T02:26:29;21.10;;;16.00;;
3217;SDS011;1621;49.702;8.618;2024-03-08T02:28:55;28.47;;;16.83;;
3217;SDS011;1621;49.702;8.618;2024-03-08T02:31:22;22.07;;;16.53;;
3217;SDS011;1621;49.702;8.618;2024-03-08T02:33:48;21.77;;;17.20;;
3217;SDS011;1621;49.702;8.618;2024-03-08T02:36:14;22.63;;;16.20;;
3217;SDS011;1621;49.702;8.618;2024-03-08T02:38:42;23.60;;;17.60;;
3217;SDS011;1621;49.702;8.618;2024-03-08T02:41:08;25.13;;;18.60;;
3217;SDS011;1621;49.702;8.618;2024-03-08T02:43:35;23.70;;;17.13;;
3217;SDS011;1621;49.702;8.618;2024-03-08T02:46:01;20.17;;;16.10;;
3217;SDS011;1621;49.702;8.618;2024-03-08T02:48:27;21.60;;;16.57;;
3217;SDS011;1621;49.702;8.618;2024-03-08T02:50:54;23.70;;;17.70;;
3217;SDS011;1621;49.702;8.618;2024-03-08T02:53:20;23.07;;;17.10;;
3217;SDS011;1621;49.702;8.618;2024-03-08T02:55:48;24.30;;;17.20;;
3217;SDS011;1621;49.702;8.618;2024-03-08T02:58:14;20.13;;;15.90;;
3217;SDS011;1621;49.702;8.618;2024-03-08T03:00:41;22.63;;;16.43;;
3217;SDS011;1621;49.702;8.618;2024-03-08T03:03:09;20.30;;;15.67;;
3217;SDS011;1621;49.702;8.618;2024-03-08T03:05:35;20.87;;;16.40;;
3217;SDS011;1621;49.702;8.618;2024-03-08T03:08:01;21.17;;;16.60;;
3217;SDS011;1621;49.702;8.618;2024-03-08T03:10:29;21.83;;;15.00;;
3217;SDS011;1621;49.702;8.618;2024-03-08T03:12:57;21.43;;;17.50;;
3217;SDS011;1621;49.702;8.618;2024-03-08T03:15:23;24.07;;;17.87;;
3217;SDS011;1621;49.702;8.618;2024-03-08T03:17:50;20.47;;;16.20;;
3217;SDS011;1621;49.702;8.618;2024-03-08T03:20:17;20.80;;;16.43;;
3217;SDS011;1621;49.702;8.618;2024-03-08T03:22:48;22.80;;;16.10;;
3217;SDS011;1621;49.702;8.618;2024-03-08T03:25:16;22.40;;;17.07;;
3217;SDS011;1621;49.702;8.618;2024-03-08T03:27:48;21.93;;;16.03;;
3217;SDS011;1621;49.702;8.618;2024-03-08T03:30:16;24.83;;;17.17;;
3217;SDS011;1621;49.702;8.618;2024-03-08T03:32:48;21.30;;;16.20;;
3217;SDS011;1621;49.702;8.618;2024-03-08T03:35:16;22.87;;;17.47;;
3217;SDS011;1621;49.702;8.618;2024-03-08T03:37:42;23.10;;;17.27;;
3217;SDS011;1621;49.702;8.618;2024-03-08T03:40:16;26.73;;;19.17;;
3217;SDS011;1621;49.702;8.618;2024-03-08T03:42:43;22.63;;;17.60;;
3217;SDS011;1621;49.702;8.618;2024-03-08T03:45:10;22.93;;;16.90;;
3217;SDS011;1621;49.702;8.618;2024-03-08T03:47:38;24.10;;;16.93;;
3217;SDS011;1621;49.702;8.618;2024-03-08T03:50:05;26.20;;;18.47;;
3217;SDS011;1621;49.702;8.618;2024-03-08T03:52:32;22.07;;;16.07;;
3217;SDS011;1621;49.702;8.618;2024-03-08T03:54:58;21.57;;;16.00;;
3217;SDS011;1621;49.702;8.618;2024-03-08T03:57:24;22.27;;;17.67;;
3217;SDS011;1621;49.702;8.618;2024-03-08T03:59:51;22.07;;;16.73;;
3217;SDS011;1621;49.702;8.618;2024-03-08T04:02:17;22.10;;;15.17;;
3217;SDS011;1621;49.702;8.618;2024-03-08T04:04:46;23.47;;;15.57;;
3217;SDS011;1621;49.702;8.618;2024-03-08T04:07:12;26.80;;;17.10;;
3217;SDS011;1621;49.702;8.618;2024-03-08T04:09:39;32.03;;;17.10;;
3217;SDS011;1621;49.702;8.618;2024-03-08T04:12:05;25.13;;;17.93;;
3217;SDS011;1621;49.702;8.618;2024-03-08T04:14:32;25.17;;;17.43;;
3217;SDS011;1621;49.702;8.618;2024-03-08T04:16:59;26.40;;;17.43;;
3217;SDS011;1621;49.702;8.618;2024-03-08T04:19:25;24.83;;;16.90;;
3217;SDS011;1621;49.702;8.618;2024-03-08T04:21:54;25.70;;;16.93;;
3217;SDS011;1621;49.702;8.618;2024-03-08T04:24:20;24.80;;;17.30;;
3217;SDS011;1621;49.702;8.618;2024-03-08T04:26:47;23.30;;;16.23;;
3217;SDS011;1621;49.702;8.618;2024-03-08T04:29:13;26.07;;;18.17;;
3217;SDS011;1621;49.702;8.618;2024-03-08T04:31:40;24.53;;;17.47;;
3217;SDS011;1621;49.702;8.618;2024-03-08T04:34:06;23.93;;;16.67;;
3217;SDS011;1621;49.702;8.618;2024-03-08T04:36:33;28.80;;;17.77;;
3217;SDS011;1621;49.702;8.618;2024-03-08T04:39:01;24.50;;;17.10;;
3217;SDS011;1621;49.702;8.618;2024-03-08T04:41:28;29.47;;;19.37;;
3217;SDS011;1621;49.702;8.618;2024-03-08T04:43:55;25.50;;;18.40;;
3217;SDS011;1621;49.702;8.618;2024-03-08T04:46:22;23.97;;;17.40;;
3217;SDS011;1621;49.702;8.618;2024-03-08T04:48:49;27.53;;;19.73;;
3217;SDS011;1621;49.702;8.618;2024-03-08T04:51:15;23.13;;;17.43;;
3217;SDS011;1621;49.702;8.618;2024-03-08T04:53:41;25.43;;;17.77;;
3217;SDS011;1621;49.702;8.618;2024-03-08T04:56:09;29.80;;;20.23;;
3217;SDS011;1621;49.702;8.618;2024-03-08T04:58:35;26.83;;;17.07;;
3217;SDS011;1621;49.702;8.618;2024-03-08T05:01:01;22.87;;;15.67;;
3217;SDS011;1621;49.702;8.618;2024-03-08T05:03:28;25.00;;;17.70;;
3217;SDS011;1621;49.702;8.618;2024-03-08T05:05:55;26.80;;;17.87;;
3217;SDS011;1621;49.702;8.618;2024-03-08T05:08:21;24.00;;;17.10;;
3217;SDS011;1621;49.702;8.618;2024-03-08T05:10:47;24.53;;;17.80;;
3217;SDS011;1621;49.702;8.618;2024-03-08T05:13:15;25.07;;;18.37;;
3217;SDS011;1621;49.702;8.618;2024-03-08T05:15:41;26.40;;;17.60;;
3217;SDS011;1621;49.702;8.618;2024-03-08T05:18:07;23.17;;;17.40;;
3217;SDS011;1621;49.702;8.618;2024-03-08T05:20:36;25.90;;;19.20;;
3217;SDS011;1621;49.702;8.618;2024-03-08T05:23:02;27.93;;;18.90;;
3217;SDS011;1621;49.702;8.618;2024-03-08T05:25:30;25.43;;;19.10;;
3217;SDS011;1621;49.702;8.618;2024-03-08T05:27:56;27.00;;;18.70;;
3217;SDS011;1621;49.702;8.618;2024-03-08T05:30:24;22.33;;;17.33;;
3217;SDS011;1621;49.702;8.618;2024-03-08T05:32:50;25.30;;;16.40;;
3217;SDS011;1621;49.702;8.618;2024-03-08T05:35:17;23.40;;;18.00;;
3217;SDS011;1621;49.702;8.618;2024-03-08T05:41:06;27.47;;;19.07;;
3217;SDS011;1621;49.702;8.618;2024-03-08T05:43:34;23.17;;;17.87;;
3217;SDS011;1621;49.702;8.618;2024-03-08T05:46:01;30.17;;;18.50;;
3217;SDS011;1621;49.702;8.618;2024-03-08T05:48:29;23.30;;;17.90;;
3217;SDS011;1621;49.702;8.618;2024-03-08T05:50:57;26.50;;;17.47;;
3217;SDS011;1621;49.702;8.618;2024-03-08T05:53:23;26.10;;;18.77;;
3217;SDS011;1621;49.702;8.618;2024-03-08T05:55:49;25.00;;;18.23;;
3217;SDS011;1621;49.702;8.618;2024-03-08T05:58:16;27.37;;;18.57;;
3217;SDS011;1621;49.702;8.618;2024-03-08T06:00:42;29.83;;;19.87;;
3217;SDS011;1621;49.702;8.618;2024-03-08T06:03:10;29.80;;;20.07;;
3217;SDS011;1621;49.702;8.618;2024-03-08T06:05:36;26.40;;;19.50;;
3217;SDS011;1621;49.702;8.618;2024-03-08T06:08:06;23.73;;;17.07;;
3217;SDS011;1621;49.702;8.618;2024-03-08T06:10:33;24.13;;;18.60;;
3217;SDS011;1621;49.702;8.618;2024-03-08T06:12:59;26.07;;;18.10;;
3217;SDS011;1621;49.702;8.618;2024-03-08T06:15:26;24.37;;;18.60;;
3217;SDS011;1621;49.702;8.618;2024-03-08T06:17:52;25.10;;;18.63;;
3217;SDS011;1621;49.702;8.618;2024-03-08T06:20:20;24.80;;;18.30;;
3217;SDS011;1621;49.702;8.618;2024-03-08T06:22:51;23.43;;;17.97;;
3217;SDS011;1621;49.702;8.618;2024-03-08T06:25:17;26.33;;;18.17;;
3217;SDS011;1621;49.702;8.618;2024-03-08T06:27:43;28.43;;;18.43;;
3217;SDS011;1621;49.702;8.618;2024-03-08T06:30:12;23.53;;;18.40;;
3217;SDS011;1621;49.702;8.618;2024-03-08T06:32:40;26.13;;;18.10;;
3217;SDS011;1621;49.702;8.618;2024-03-08T06:35:08;30.03;;;18.87;;
3217;SDS011;1621;49.702;8.618;2024-03-08T06:37:36;21.77;;;17.90;;
3217;SDS011;1621;49.702;8.618;2024-03-08T06:40:03;26.20;;;18.83;;
3217;SDS011;1621;49.702;8.618;2024-03-08T06:42:30;25.23;;;18.13;;
3217;SDS011;1621;49.702;8.618;2024-03-08T06:44:58;25.53;;;18.07;;
3217;SDS011;1621;49.702;8.618;2024-03-08T06:47:29;24.40;;;18.57;;
3217;SDS011;1621;49.702;8.618;2024-03-08T06:49:55;24.47;;;18.90;;
3217;SDS011;1621;49.702;8.618;2024-03-08T06:52:22;32.53;;;19.33;;
3217;SDS011;1621;49.702;8.618;2024-03-08T06:54:49;22.63;;;18.10;;
3217;SDS011;1621;49.702;8.618;2024-03-08T06:57:17;25.00;;;17.83;;
3217;SDS011;1621;49.702;8.618;2024-03-08T06:59:45;25.57;;;18.00;;
3217;SDS011;1621;49.702;8.618;2024-03-08T07:02:11;23.40;;;18.77;;
3217;SDS011;1621;49.702;8.618;2024-03-08T07:04:38;24.23;;;18.50;;
3217;SDS011;1621;49.702;8.618;2024-03-08T07:07:05;28.03;;;17.80;;
3217;SDS011;1621;49.702;8.618;2024-03-08T07:09:34;27.07;;;19.37;;
3217;SDS011;1621;49.702;8.618;2024-03-08T07:12:02;23.97;;;17.70;;
3217;SDS011;1621;49.702;8.618;2024-03-08T07:14:29;27.83;;;17.60;;
3217;SDS011;1621;49.702;8.618;2024-03-08T07:16:56;23.80;;;18.03;;
3217;SDS011;1621;49.702;8.618;2024-03-08T07:19:22;24.73;;;17.33;;
3217;SDS011;1621;49.702;8.618;2024-03-08T07:21:49;22.77;;;18.30;;
3217;SDS011;1621;49.702;8.618;2024-03-08T07:24:15;26.97;;;19.07;;
3217;SDS011;1621;49.702;8.618;2024-03-08T07:26:58;25.50;;;18.63;;
3217;SDS011;1621;49.702;8.618;2024-03-08T07:29:25;24.47;;;17.70;;
3217;SDS011;1621;49.702;8.618;2024-03-08T07:31:52;22.20;;;17.60;;
3217;SDS011;1621;49.702;8.618;2024-03-08T07:34:27;26.23;;;19.60;;
3217;SDS011;1621;49.702;8.618;2024-03-08T07:36:55;27.00;;;18.77;;
3217;SDS011;1621;49.702;8.618;2024-03-08T07:39:21;24.20;;;18.30;;
3217;SDS011;1621;49.702;8.618;2024-03-08T07:41:48;26.97;;;18.43;;
3217;SDS011;1621;49.702;8.618;2024-03-08T07:44:17;25.53;;;19.00;;
3217;SDS011;1621;49.702;8.618;2024-03-08T07:46:45;23.10;;;17.73;;
3217;SDS011;1621;49.702;8.618;2024-03-08T07:49:11;23.30;;;17.70;;
3217;SDS011;1621;49.702;8.618;2024-03-08T07:51:39;25.27;;;18.57;;
3217;SDS011;1621;49.702;8.618;2024-03-08T07:54:05;21.70;;;17.07;;
3217;SDS011;1621;49.702;8.618;2024-03-08T07:56:33;22.03;;;17.10;;
3217;SDS011;1621;49.702;8.618;2024-03-08T07:59:01;22.60;;;17.27;;
3217;SDS011;1621;49.702;8.618;2024-03-08T08:01:29;23.77;;;18.33;;
3217;SDS011;1621;49.702;8.618;2024-03-08T08:03:56;24.13;;;16.87;;
3217;SDS011;1621;49.702;8.618;2024-03-08T08:06:22;22.07;;;17.43;;
3217;SDS011;1621;49.702;8.618;2024-03-08T08:08:50;22.73;;;18.57;;
3217;SDS011;1621;49.702;8.618;2024-03-08T08:11:16;23.53;;;17.80;;
3217;SDS011;1621;49.702;8.618;2024-03-08T08:13:43;26.60;;;17.57;;
3217;SDS011;1621;49.702;8.618;2024-03-08T08:16:09;23.30;;;17.87;;
3217;SDS011;1621;49.702;8.618;2024-03-08T08:18:35;24.13;;;16.43;;
3217;SDS011;1621;49.702;8.618;2024-03-08T08:21:03;23.30;;;17.30;;
3217;SDS011;1621;49.702;8.618;2024-03-08T08:23:31;25.73;;;17.53;;
3217;SDS011;1621;49.702;8.618;2024-03-08T08:25:57;23.80;;;17.43;;
3217;SDS011;1621;49.702;8.618;2024-03-08T08:28:24;22.20;;;16.43;;
3217;SDS011;1621;49.702;8.618;2024-03-08T08:30:50;24.07;;;15.57;;
3217;SDS011;1621;49.702;8.618;2024-03-08T08:33:17;23.23;;;17.60;;
3217;SDS011;1621;49.702;8.618;2024-03-08T08:35:43;22.80;;;16.90;;
3217;SDS011;1621;49.702;8.618;2024-03-08T08:38:10;24.70;;;18.17;;
3217;SDS011;1621;49.702;8.618;2024-03-08T08:40:37;23.47;;;15.80;;
3217;SDS011;1621;49.702;8.618;2024-03-08T08:43:04;22.40;;;16.03;;
3217;SDS011;1621;49.702;8.618;2024-03-08T08:45:30;22.77;;;16.33;;
3217;SDS011;1621;49.702;8.618;2024-03-08T08:47:57;21.50;;;15.30;;
3217;SDS011;1621;49.702;8.618;2024-03-08T08:50:24;22.00;;;16.70;;
3217;SDS011;1621;49.702;8.618;2024-03-08T08:52:52;22.47;;;16.30;;
3217;SDS011;1621;49.702;8.618;2024-03-08T08:55:19;19.23;;;15.03;;
3217;SDS011;1621;49.702;8.618;2024-03-08T08:57:50;20.03;;;16.07;;
3217;SDS011;1621;49.702;8.618;2024-03-08T09:00:17;21.73;;;15.70;;
3217;SDS011;1621;49.702;8.618;2024-03-08T09:02:45;20.27;;;14.67;;
3217;SDS011;1621;49.702;8.618;2024-03-08T09:05:12;20.63;;;16.10;;
3217;SDS011;1621;49.702;8.618;2024-03-08T09:07:41;20.80;;;15.80;;
3217;SDS011;1621;49.702;8.618;2024-03-08T09:10:09;23.50;;;17.40;;
3217;SDS011;1621;49.702;8.618;2024-03-08T09:12:38;19.80;;;15.00;;
3217;SDS011;1621;49.702;8.618;2024-03-08T09:15:05;22.03;;;16.60;;
3217;SDS011;1621;49.702;8.618;2024-03-08T09:17:33;19.97;;;15.37;;
3217;SDS011;1621;49.702;8.618;2024-03-08T09:19:59;20.27;;;14.93;;
3217;SDS011;1621;49.702;8.618;2024-03-08T09:22:28;20.80;;;14.83;;
3217;SDS011;1621;49.702;8.618;2024-03-08T09:24:54;20.63;;;14.93;;
3217;SDS011;1621;49.702;8.618;2024-03-08T09:27:22;21.20;;;16.23;;
3217;SDS011;1621;49.702;8.618;2024-03-08T09:29:50;19.20;;;15.50;;
3217;SDS011;1621;49.702;8.618;2024-03-08T09:32:16;20.20;;;14.87;;
3217;SDS011;1621;49.702;8.618;2024-03-08T09:34:43;18.40;;;14.63;;
3217;SDS011;1621;49.702;8.618;2024-03-08T09:37:09;23.07;;;16.00;;
3217;SDS011;1621;49.702;8.618;2024-03-08T09:39:35;21.10;;;15.70;;
3217;SDS011;1621;49.702;8.618;2024-03-08T09:42:02;24.50;;;14.90;;
3217;SDS011;1621;49.702;8.618;2024-03-08T09:44:28;20.40;;;15.50;;
3217;SDS011;1621;49.702;8.618;2024-03-08T09:46:56;18.90;;;14.30;;
3217;SDS011;1621;49.702;8.618;2024-03-08T09:49:23;22.47;;;16.00;;
3217;SDS011;1621;49.702;8.618;2024-03-08T09:51:49;21.17;;;15.30;;
3217;SDS011;1621;49.702;8.618;2024-03-08T09:54:16;18.63;;;14.90;;
3217;SDS011;1621;49.702;8.618;2024-03-08T09:56:45;23.80;;;16.00;;
3217;SDS011;1621;49.702;8.618;2024-03-08T09:59:13;20.50;;;14.97;;
3217;SDS011;1621;49.702;8.618;2024-03-08T10:02:12;21.53;;;16.10;;
3217;SDS011;1621;49.702;8.618;2024-03-08T10:04:39;20.77;;;13.67;;
3217;SDS011;1621;49.702;8.618;2024-03-08T10:07:07;21.30;;;15.87;;
3217;SDS011;1621;49.702;8.618;2024-03-08T10:09:33;20.00;;;15.30;;
3217;SDS011;1621;49.702;8.618;2024-03-08T10:12:00;21.83;;;16.03;;
3217;SDS011;1621;49.702;8.618;2024-03-08T10:14:27;17.83;;;13.10;;
3217;SDS011;1621;49.702;8.618;2024-03-08T10:16:53;19.80;;;15.23;;
3217;SDS011;1621;49.702;8.618;2024-03-08T10:19:26;21.27;;;16.53;;
3217;SDS011;1621;49.702;8.618;2024-03-08T10:21:52;19.40;;;14.80;;
3217;SDS011;1621;49.702;8.618;2024-03-08T10:24:21;20.90;;;15.63;;
3217;SDS011;1621;49.702;8.618;2024-03-08T10:26:48;21.03;;;14.77;;
3217;SDS011;1621;49.702;8.618;2024-03-08T10:29:14;22.30;;;15.80;;
3217;SDS011;1621;49.702;8.618;2024-03-08T10:31:42;19.97;;;15.93;;
3217;SDS011;1621;49.702;8.618;2024-03-08T10:34:09;19.00;;;15.20;;
3217;SDS011;1621;49.702;8.618;2024-03-08T10:36:36;20.23;;;15.20;;
3217;SDS011;1621;49.702;8.618;2024-03-08T10:39:04;20.07;;;14.57;;
3217;SDS011;1621;49.702;8.618;2024-03-08T10:41:33;21.03;;;14.77;;
3217;SDS011;1621;49.702;8.618;2024-03-08T10:46:47;21.33;;;15.13;;
3217;SDS011;1621;49.702;8.618;2024-03-08T10:49:21;20.43;;;15.10;;
3217;SDS011;1621;49.702;8.618;2024-03-08T10:51:52;21.50;;;15.83;;
3217;SDS011;1621;49.702;8.618;2024-03-08T10:54:18;19.30;;;14.83;;
3217;SDS011;1621;49.702;8.618;2024-03-08T10:56:46;20.20;;;15.37;;
3217;SDS011;1621;49.702;8.618;2024-03-08T10:59:14;19.60;;;14.90;;
3217;SDS011;1621;49.702;8.618;2024-03-08T11:01:40;20.77;;;14.70;;
3217;SDS011;1621;49.702;8.618;2024-03-08T11:04:07;19.60;;;13.83;;
3217;SDS011;1621;49.702;8.618;2024-03-08T11:06:41;21.60;;;16.03;;
3217;SDS011;1621;49.702;8.618;2024-03-08T11:09:10;18.70;;;14.40;;
3217;SDS011;1621;49.702;8.618;2024-03-08T11:11:42;20.30;;;14.20;;
3217;SDS011;1621;49.702;8.618;2024-03-08T11:14:26;18.70;;;14.80;;
3217;SDS011;1621;49.702;8.618;2024-03-08T11:16:59;19.07;;;14.83;;
3217;SDS011;1621;49.702;8.618;2024-03-08T11:19:31;19.67;;;14.77;;
3217;SDS011;1621;49.702;8.618;2024-03-08T11:22:02;19.57;;;14.20;;
3217;SDS011;1621;49.702;8.618;2024-03-08T11:24:37;20.10;;;14.60;;
3217;SDS011;1621;49.702;8.618;2024-03-08T11:27:05;19.77;;;13.63;;
3217;SDS011;1621;49.702;8.618;2024-03-08T11:29:35;20.90;;;14.03;;
3217;SDS011;1621;49.702;8.618;2024-03-08T11:32:04;19.50;;;13.63;;
3217;SDS011;1621;49.702;8.618;2024-03-08T11:34:31;18.57;;;14.50;;
3217;SDS011;1621;49.702;8.618;2024-03-08T11:36:58;18.33;;;14.33;;
3217;SDS011;1621;49.702;8.618;2024-03-08T11:39:24;25.70;;;15.53;;
3217;SDS011;1621;49.702;8.618;2024-03-08T11:41:52;18.07;;;14.30;;
3217;SDS011;1621;49.702;8.618;2024-03-08T11:44:18;20.17;;;15.23;;
3217;SDS011;1621;49.702;8.618;2024-03-08T11:46:45;21.67;;;15.60;;
3217;SDS011;1621;49.702;8.618;2024-03-08T11:49:12;19.10;;;15.10;;
3217;SDS011;1621;49.702;8.618;2024-03-08T11:51:39;19.03;;;14.10;;
3217;SDS011;1621;49.702;8.618;2024-03-08T11:54:06;19.80;;;14.47;;
3217;SDS011;1621;49.702;8.618;2024-03-08T11:56:32;18.03;;;13.87;;
3217;SDS011;1621;49.702;8.618;2024-03-08T11:59:00;20.00;;;14.43;;
3217;SDS011;1621;49.702;8.618;2024-03-08T12:01:26;25.70;;;13.37;;
3217;SDS011;1621;49.702;8.618;2024-03-08T12:03:53;16.50;;;13.10;;
3217;SDS011;1621;49.702;8.618;2024-03-08T12:06:20;20.00;;;14.30;;
3217;SDS011;1621;49.702;8.618;2024-03-08T12:08:46;18.93;;;14.40;;
3217;SDS011;1621;49.702;8.618;2024-03-08T12:11:14;18.83;;;13.70;;
3217;SDS011;1621;49.702;8.618;2024-03-08T12:13:41;17.70;;;13.60;;
3217;SDS011;1621;49.702;8.618;2024-03-08T12:16:08;16.97;;;12.53;;
3217;SDS011;1621;49.702;8.618;2024-03-08T12:18:36;14.77;;;12.47;;
3217;SDS011;1621;49.702;8.618;2024-03-08T12:21:04;18.00;;;13.77;;
3217;SDS011;1621;49.702;8.618;2024-03-08T12:23:32;18.63;;;12.93;;
3217;SDS011;1621;49.702;8.618;2024-03-08T12:25:59;16.53;;;12.40;;
3217;SDS011;1621;49.702;8.618;2024-03-08T12:28:38;17.47;;;14.10;;
3217;SDS011;1621;49.702;8.618;2024-03-08T12:31:06;19.13;;;13.93;;
3217;SDS011;1621;49.702;8.618;2024-03-08T12:33:36;19.23;;;14.17;;
3217;SDS011;1621;49.702;8.618;2024-03-08T12:36:03;16.70;;;12.73;;
3217;SDS011;1621;49.702;8.618;2024-03-08T12:38:32;19.03;;;12.70;;
3217;SDS011;1621;49.702;8.618;2024-03-08T12:41:00;21.37;;;14.40;;
3217;SDS011;1621;49.702;8.618;2024-03-08T12:43:27;18.70;;;12.93;;
3217;SDS011;1621;49.702;8.618;2024-03-08T12:45:55;18.60;;;13.73;;
3217;SDS011;1621;49.702;8.618;2024-03-08T12:48:21;16.37;;;13.07;;
3217;SDS011;1621;49.702;8.618;2024-03-08T12:50:49;18.03;;;13.50;;
3217;SDS011;1621;49.702;8.618;2024-03-08T12:53:17;19.67;;;12.90;;
3217;SDS011;1621;49.702;8.618;2024-03-08T12:55:43;16.70;;;12.40;;
3217;SDS011;1621;49.702;8.618;2024-03-08T12:58:09;17.57;;;13.10;;
3217;SDS011;1621;49.702;8.618;2024-03-08T13:00:36;20.20;;;14.07;;
3217;SDS011;1621;49.702;8.618;2024-03-08T13:03:05;18.00;;;13.07;;
3217;SDS011;1621;49.702;8.618;2024-03-08T13:05:31;19.07;;;13.50;;
3217;SDS011;1621;49.702;8.618;2024-03-08T13:07:59;16.00;;;12.67;;
3217;SDS011;1621;49.702;8.618;2024-03-08T13:10:25;16.50;;;12.50;;
3217;SDS011;1621;49.702;8.618;2024-03-08T13:12:51;19.20;;;14.03;;
3217;SDS011;1621;49.702;8.618;2024-03-08T13:15:19;19.87;;;12.33;;
3217;SDS011;1621;49.702;8.618;2024-03-08T13:17:46;19.20;;;13.60;;
3217;SDS011;1621;49.702;8.618;2024-03-08T13:20:13;17.40;;;12.23;;
3217;SDS011;1621;49.702;8.618;2024-03-08T13:22:42;18.60;;;12.87;;
3217;SDS011;1621;49.702;8.618;2024-03-08T13:25:10;16.80;;;12.20;;
3217;SDS011;1621;49.702;8.618;2024-03-08T13:27:38;18.33;;;13.13;;
3217;SDS011;1621;49.702;8.618;2024-03-08T13:30:04;15.70;;;12.13;;
3217;SDS011;1621;49.702;8.618;2024-03-08T13:32:32;17.60;;;13.50;;
3217;SDS011;1621;49.702;8.618;2024-03-08T13:34:58;16.50;;;12.50;;
3217;SDS011;1621;49.702;8.618;2024-03-08T13:37:39;19.53;;;12.70;;
3217;SDS011;1621;49.702;8.618;2024-03-08T13:40:22;19.10;;;13.70;;
3217;SDS011;1621;49.702;8.618;2024-03-08T13:42:49;23.67;;;15.97;;
3217;SDS011;1621;49.702;8.618;2024-03-08T13:45:15;24.90;;;14.13;;
3217;SDS011;1621;49.702;8.618;2024-03-08T13:47:42;19.70;;;14.73;;
3217;SDS011;1621;49.702;8.618;2024-03-08T13:50:09;18.63;;;13.70;;
3217;SDS011;1621;49.702;8.618;2024-03-08T13:52:37;19.93;;;14.07;;
3217;SDS011;1621;49.702;8.618;2024-03-08T13:55:04;18.30;;;13.37;;
3217;SDS011;1621;49.702;8.618;2024-03-08T13:57:32;19.23;;;13.37;;
3217;SDS011;1621;49.702;8.618;2024-03-08T13:59:58;19.77;;;14.00;;
3217;SDS011;1621;49.702;8.618;2024-03-08T14:02:24;18.30;;;12.80;;
3217;SDS011;1621;49.702;8.618;2024-03-08T14:04:53;18.80;;;13.83;;
3217;SDS011;1621;49.702;8.618;2024-03-08T14:07:19;16.23;;;12.60;;
3217;SDS011;1621;49.702;8.618;2024-03-08T14:09:45;18.53;;;13.77;;
3217;SDS011;1621;49.702;8.618;2024-03-08T14:12:12;18.33;;;13.23;;
3217;SDS011;1621;49.702;8.618;2024-03-08T14:14:40;17.33;;;13.90;;
3217;SDS011;1621;49.702;8.618;2024-03-08T14:17:07;16.87;;;13.47;;
3217;SDS011;1621;49.702;8.618;2024-03-08T14:19:35;17.10;;;13.00;;
3217;SDS011;1621;49.702;8.618;2024-03-08T14:22:01;19.77;;;13.73;;
3217;SDS011;1621;49.702;8.618;2024-03-08T14:24:29;17.13;;;13.00;;
3217;SDS011;1621;49.702;8.618;2024-03-08T14:26:55;16.90;;;13.00;;
3217;SDS011;1621;49.702;8.618;2024-03-08T14:29:23;16.77;;;12.40;;
3217;SDS011;1621;49.702;8.618;2024-03-08T14:31:54;19.80;;;13.73;;
3217;SDS011;1621;49.702;8.618;2024-03-08T14:34:22;18.40;;;12.03;;
3217;SDS011;1621;49.702;8.618;2024-03-08T14:36:52;20.60;;;13.67;;
3217;SDS011;1621;49.702;8.618;2024-03-08T14:39:18;17.60;;;12.23;;
3217;SDS011;1621;49.702;8.618;2024-03-08T14:41:46;19.70;;;13.60;;
3217;SDS011;1621;49.702;8.618;2024-03-08T14:44:13;19.00;;;13.73;;
3217;SDS011;1621;49.702;8.618;2024-03-08T14:46:39;18.30;;;13.43;;
3217;SDS011;1621;49.702;8.618;2024-03-08T14:49:08;17.33;;;12.60;;
3217;SDS011;1621;49.702;8.618;2024-03-08T14:51:35;16.70;;;12.63;;
3217;SDS011;1621;49.702;8.618;2024-03-08T14:54:01;20.37;;;13.33;;
3217;SDS011;1621;49.702;8.618;2024-03-08T14:56:27;16.60;;;12.30;;